createdAt,value
2019-01-08T00:02:04.805Z,99632.28
2019-01-08T00:04:31.715Z,99610.09
2019-01-08T00:06:58.476Z,99603.86
2019-01-08T00:09:25.573Z,99603.86
2019-01-08T00:11:52.479Z,99615.88
2019-01-08T00:14:19.279Z,99593.19
2019-01-08T00:16:45.931Z,99588.59
2019-01-08T00:19:12.757Z,99588.59
2019-01-08T00:21:39.539Z,99582.53
2019-01-08T00:24:06.280Z,99581.53
2019-01-08T00:26:33.399Z,99581.53
2019-01-08T00:29:00.173Z,99575.95
2019-01-08T00:31:26.973Z,99569.30
2019-01-08T00:36:37.883Z,99541.11
2019-01-08T00:39:05.918Z,99541.11
2019-01-08T00:41:33.019Z,99518.92
2019-01-08T00:43:59.839Z,99499.52
2019-01-08T00:46:26.595Z,99499.52
2019-01-08T00:48:53.416Z,99521.96
2019-01-08T00:51:20.134Z,99494.68
2019-01-08T00:53:46.832Z,99504.63
2019-01-08T00:56:13.547Z,99497.08
2019-01-08T00:58:40.396Z,99490.61
2019-01-08T01:01:07.135Z,99490.61
2019-01-08T01:03:34.323Z,99485.12
2019-01-08T01:06:01.143Z,99483.25
2019-01-08T01:08:27.839Z,99483.25
2019-01-08T01:10:54.687Z,99480.91
2019-01-08T01:13:21.426Z,99480.91
2019-01-08T01:15:48.150Z,99467.95
2019-01-08T01:18:15.403Z,99458.11
2019-01-08T01:20:42.475Z,99456.83
2019-01-08T01:23:09.311Z,99463.89
2019-01-08T01:25:36.014Z,99463.89
2019-01-08T01:28:04.992Z,99444.91
2019-01-08T01:30:31.700Z,99440.77
2019-01-08T01:32:58.416Z,99440.77
2019-01-08T01:35:25.152Z,99435.73
2019-01-08T01:37:51.951Z,99429.25
2019-01-08T01:40:18.682Z,99424.52
2019-01-08T01:42:45.417Z,99424.52
2019-01-08T01:45:12.299Z,99410.72
2019-01-08T01:47:39.054Z,99407.56
2019-01-08T01:50:05.868Z,99402.85
2019-01-08T01:52:32.603Z,99392.86
2019-01-08T01:54:59.359Z,99392.86
2019-01-08T01:57:26.116Z,99378.45
2019-01-08T01:59:52.817Z,99378.45
2019-01-08T02:02:19.545Z,99366.75
2019-01-08T02:04:48.206Z,99370.45
2019-01-08T02:07:14.940Z,99365.59
2019-01-08T02:09:41.640Z,99364.33
2019-01-08T02:12:08.358Z,99364.33
2019-01-08T02:14:35.187Z,99362.01
2019-01-08T02:17:01.986Z,99362.01
2019-01-08T02:19:28.728Z,99373.07
2019-01-08T02:21:55.488Z,99355.00
2019-01-08T02:24:22.214Z,99344.25
2019-01-08T02:26:51.794Z,99360.13
2019-01-08T02:29:18.577Z,99360.13
2019-01-08T02:31:45.299Z,99352.19
2019-01-08T02:34:12.028Z,99333.34
2019-01-08T02:36:38.721Z,99323.87
2019-01-08T02:39:05.905Z,99332.08
2019-01-08T02:41:32.685Z,99325.98
2019-01-08T02:43:59.675Z,99317.63
2019-01-08T02:46:26.484Z,99334.84
2019-01-08T02:48:53.199Z,99303.05
2019-01-08T02:51:19.937Z,99302.08
2019-01-08T02:53:46.667Z,99306.50
2019-01-08T02:56:15.149Z,99306.81
2019-01-08T02:58:41.902Z,99306.81
2019-01-08T03:01:08.638Z,99298.45
2019-01-08T03:03:35.381Z,99298.45
2019-01-08T03:06:02.242Z,99284.82
2019-01-08T03:08:28.953Z,99280.31
2019-01-08T03:10:55.674Z,99280.31
2019-01-08T03:13:23.782Z,99267.28
2019-01-08T03:15:50.522Z,99260.38
2019-01-08T03:18:17.242Z,99260.38
2019-01-08T03:20:44.002Z,99259.48
2019-01-08T03:23:10.742Z,99259.48
2019-01-08T03:25:37.484Z,99248.50
2019-01-08T03:28:06.581Z,99239.59
2019-01-08T03:30:33.295Z,99221.81
2019-01-08T03:32:59.993Z,99221.81
2019-01-08T03:35:26.892Z,99230.73
2019-01-08T03:37:53.590Z,99230.73
2019-01-08T03:40:20.307Z,99210.03
2019-01-08T03:42:47.016Z,99211.64
2019-01-08T03:45:13.714Z,99192.05
2019-01-08T03:47:40.440Z,99192.05
2019-01-08T03:50:07.298Z,99206.00
2019-01-08T03:52:34.359Z,99200.59
2019-01-08T03:55:01.078Z,99195.34
2019-01-08T03:57:27.910Z,99197.94
2019-01-08T03:59:54.708Z,99196.22
2019-01-08T04:02:21.443Z,99196.22
2019-01-08T04:04:48.124Z,99192.36
2019-01-08T04:07:14.849Z,99192.36
2019-01-08T04:09:41.532Z,99182.55
2019-01-08T04:12:09.084Z,99182.55
2019-01-08T04:14:35.765Z,99182.33
2019-01-08T04:17:06.101Z,99175.94
2019-01-08T04:19:33.182Z,99174.93
2019-01-08T04:21:59.924Z,99173.97
2019-01-08T04:24:26.667Z,99166.73
2019-01-08T04:26:53.439Z,99166.73
2019-01-08T04:29:20.271Z,99158.62
2019-01-08T04:31:47.125Z,99148.30
2019-01-08T04:34:13.869Z,99140.61
2019-01-08T04:36:40.998Z,99131.52
2019-01-08T04:39:07.720Z,99133.52
2019-01-08T04:41:34.557Z,99134.27
2019-01-08T04:44:01.263Z,99133.27
2019-01-08T04:46:27.992Z,99137.09
2019-01-08T04:48:54.685Z,99127.16
2019-01-08T04:51:21.374Z,99120.44
2019-01-08T04:53:48.077Z,99113.16
2019-01-08T04:56:14.801Z,99116.34
2019-01-08T04:58:41.515Z,99108.81
2019-01-08T05:01:08.528Z,99106.38
2019-01-08T05:03:35.776Z,99107.55
2019-01-08T05:06:02.620Z,99109.86
2019-01-08T05:08:29.456Z,99108.20
2019-01-08T05:10:56.262Z,99106.17
2019-01-08T05:13:23.232Z,99089.93
2019-01-08T05:15:50.883Z,99082.56
2019-01-08T05:18:18.631Z,99090.41
2019-01-08T05:20:47.211Z,99083.61
2019-01-08T05:23:15.367Z,99078.91
2019-01-08T05:25:42.112Z,99072.45
2019-01-08T05:28:22.110Z,99066.11
2019-01-08T05:30:49.132Z,99078.48
2019-01-08T05:33:19.060Z,99096.36
2019-01-08T05:35:45.863Z,99091.86
2019-01-08T05:38:12.856Z,99080.17
2019-01-08T05:40:39.704Z,99093.67
2019-01-08T05:43:06.617Z,99094.77
2019-01-08T05:45:33.327Z,99094.16
2019-01-08T05:48:00.070Z,99090.73
2019-01-08T05:50:26.965Z,99090.73
2019-01-08T05:52:53.702Z,99096.92
2019-01-08T05:55:20.445Z,99103.55
2019-01-08T05:57:47.201Z,99111.06
2019-01-08T06:00:16.543Z,99103.41
2019-01-08T06:02:42.584Z,99099.67
2019-01-08T06:05:09.559Z,99101.29
2019-01-08T06:07:36.373Z,99097.48
2019-01-08T06:10:04.701Z,99097.48
2019-01-08T06:12:31.438Z,99094.95
2019-01-08T06:14:58.436Z,99100.66
2019-01-08T06:17:25.510Z,99099.84
2019-01-08T06:19:52.630Z,99102.41
2019-01-08T06:22:19.369Z,99104.84
2019-01-08T06:24:47.628Z,99115.41
2019-01-08T06:27:16.282Z,99107.17
2019-01-08T06:29:43.139Z,99106.86
2019-01-08T06:32:09.969Z,99110.80
2019-01-08T06:34:36.806Z,99100.03
2019-01-08T06:37:03.838Z,99100.03
2019-01-08T06:39:30.560Z,99106.91
2019-01-08T06:41:57.286Z,99110.20
2019-01-08T06:44:24.006Z,99108.34
2019-01-08T06:46:50.911Z,99099.70
2019-01-08T06:49:17.743Z,99105.91
2019-01-08T06:51:45.304Z,99105.59
2019-01-08T06:54:12.083Z,99117.98
2019-01-08T06:56:39.050Z,99112.67
2019-01-08T06:59:08.209Z,99112.67
2019-01-08T07:01:35.141Z,99115.48
2019-01-08T07:04:02.224Z,99114.63
2019-01-08T07:06:29.116Z,99115.57
2019-01-08T07:08:59.234Z,99110.31
2019-01-08T07:11:25.977Z,99111.58
2019-01-08T07:13:52.701Z,99107.50
2019-01-08T07:16:19.738Z,99108.20
2019-01-08T07:18:46.575Z,99104.58
2019-01-08T07:21:13.309Z,99105.25
2019-01-08T07:23:40.082Z,99110.27
2019-01-08T07:26:06.890Z,99112.62
2019-01-08T07:28:33.581Z,99106.81
2019-01-08T07:31:00.311Z,99105.33
2019-01-08T07:33:27.067Z,99113.88
2019-01-08T07:35:53.881Z,99119.94
2019-01-08T07:38:20.846Z,99112.27
2019-01-08T07:40:48.030Z,99109.08
2019-01-08T07:43:14.901Z,99101.96
2019-01-08T07:45:43.705Z,99095.58
2019-01-08T07:48:10.631Z,99101.64
2019-01-08T07:50:37.558Z,99089.84
2019-01-08T07:53:14.005Z,99089.84
2019-01-08T07:55:45.343Z,99097.72
2019-01-08T07:58:15.392Z,99093.27
2019-01-08T08:00:49.738Z,99097.47
2019-01-08T08:03:11.201Z,99108.89
2019-01-08T08:05:38.124Z,99108.89
2019-01-08T08:08:05.792Z,99115.27
2019-01-08T08:10:33.029Z,99109.01
2019-01-08T08:12:59.825Z,99106.20
2019-01-08T08:15:29.073Z,99100.41
2019-01-08T08:17:57.580Z,99101.91
2019-01-08T08:20:24.454Z,99100.41
2019-01-08T08:22:51.216Z,99099.10
2019-01-08T08:25:18.084Z,99091.98
2019-01-08T08:27:44.819Z,99093.53
2019-01-08T08:30:11.744Z,99095.17
2019-01-08T08:32:38.534Z,99085.77
2019-01-08T08:35:08.578Z,99098.20
2019-01-08T08:37:34.257Z,99095.28
2019-01-08T08:40:01.113Z,99089.58
2019-01-08T08:42:28.598Z,99082.03
2019-01-08T08:44:55.769Z,99082.03
2019-01-08T08:47:22.632Z,99097.41
2019-01-08T08:49:49.595Z,99097.41
2019-01-08T08:52:16.379Z,99083.77
2019-01-08T08:54:43.284Z,99090.69
2019-01-08T08:57:09.958Z,99092.64
2019-01-08T08:59:37.264Z,99097.70
2019-01-08T09:02:04.065Z,99089.45
2019-01-08T09:04:30.795Z,99092.88
2019-01-08T09:06:57.562Z,99086.77
2019-01-08T09:09:26.961Z,99086.13
2019-01-08T09:11:53.919Z,99068.77
2019-01-08T09:14:20.790Z,99068.77
2019-01-08T09:16:47.606Z,99087.33
2019-01-08T09:19:14.583Z,99079.86
2019-01-08T09:21:42.495Z,99090.22
2019-01-08T09:24:09.654Z,99099.22
2019-01-08T09:26:36.563Z,99092.42
2019-01-08T09:29:05.694Z,99092.42
2019-01-08T09:31:32.587Z,99098.05
2019-01-08T09:33:59.535Z,99083.05
2019-01-08T09:36:26.549Z,99084.25
2019-01-08T09:38:53.565Z,99071.77
2019-01-08T09:41:20.431Z,99091.02
2019-01-08T09:43:47.177Z,99072.45
2019-01-08T09:46:14.049Z,99077.70
2019-01-08T09:48:40.924Z,99079.53
2019-01-08T09:51:08.179Z,99088.67
2019-01-08T09:53:35.661Z,99064.02
2019-01-08T09:56:02.649Z,99074.31
2019-01-08T09:58:29.939Z,99069.86
2019-01-08T10:00:57.131Z,99058.30
2019-01-08T10:03:24.351Z,99051.33
2019-01-08T10:05:51.279Z,99055.63
2019-01-08T10:08:18.669Z,99049.01
2019-01-08T10:10:45.790Z,99058.05
2019-01-08T10:13:12.598Z,99039.02
2019-01-08T10:15:40.987Z,99039.14
2019-01-08T10:18:10.223Z,99057.63
2019-01-08T10:20:36.964Z,99035.50
2019-01-08T10:23:09.999Z,99022.27
2019-01-08T10:25:32.981Z,99027.19
2019-01-08T10:27:59.923Z,99019.24
2019-01-08T10:30:28.952Z,99006.11
2019-01-08T10:32:55.852Z,99008.24
2019-01-08T10:35:23.486Z,99008.24
2019-01-08T10:37:50.361Z,99026.17
2019-01-08T10:40:17.103Z,99013.19
2019-01-08T10:42:44.274Z,99024.70
2019-01-08T10:45:13.861Z,99014.55
2019-01-08T10:47:40.704Z,99023.45
2019-01-08T10:50:07.490Z,99031.52
2019-01-08T10:52:34.570Z,99026.98
2019-01-08T10:55:01.295Z,99022.62
2019-01-08T10:57:31.126Z,99029.59
2019-01-08T10:59:58.218Z,99031.55
2019-01-08T11:02:29.236Z,99021.86
2019-01-08T11:04:56.454Z,99033.16
2019-01-08T11:07:23.495Z,99033.53
2019-01-08T11:09:50.253Z,99031.05
2019-01-08T11:12:17.096Z,99022.15
2019-01-08T11:14:46.118Z,99028.37
2019-01-08T11:17:14.598Z,99033.15
2019-01-08T11:19:41.539Z,99012.23
2019-01-08T11:22:08.438Z,99020.01
2019-01-08T11:24:40.714Z,99003.14
2019-01-08T11:27:10.752Z,99015.63
2019-01-08T11:29:37.476Z,99003.66
2019-01-08T11:32:05.639Z,99007.45
2019-01-08T11:34:32.471Z,99012.84
2019-01-08T11:37:04.100Z,99012.84
2019-01-08T11:39:32.140Z,98987.22
2019-01-08T11:42:02.114Z,98987.22
2019-01-08T11:44:30.273Z,98983.20
2019-01-08T11:46:57.748Z,98950.87
2019-01-08T11:49:29.560Z,98950.87
2019-01-08T11:51:56.422Z,98946.19
2019-01-08T11:54:25.976Z,98944.73
2019-01-08T11:56:52.800Z,98933.58
2019-01-08T11:59:19.546Z,98931.48
2019-01-08T12:01:57.544Z,98931.48
2019-01-08T12:04:24.609Z,98925.65
2019-01-08T12:06:51.636Z,98925.65
2019-01-08T12:09:18.413Z,98908.05
2019-01-08T12:11:50.226Z,98911.98
2019-01-08T12:14:20.616Z,98892.86
2019-01-08T12:16:47.378Z,98894.78
2019-01-08T12:19:14.151Z,98899.41
2019-01-08T12:21:41.001Z,98899.41
2019-01-08T12:24:07.876Z,98884.12
2019-01-08T12:26:36.547Z,98890.83
2019-01-08T12:29:03.427Z,98893.47
2019-01-08T12:31:33.671Z,98906.52
2019-01-08T12:34:00.559Z,98908.95
2019-01-08T12:36:27.621Z,98896.90
2019-01-08T12:38:54.513Z,98896.90
2019-01-08T12:41:25.468Z,98901.17
2019-01-08T12:43:55.676Z,98901.17
2019-01-08T12:46:25.613Z,98911.24
2019-01-08T12:48:53.631Z,98891.02
2019-01-08T12:51:22.710Z,98891.02
2019-01-08T12:53:49.859Z,98885.96
2019-01-08T12:56:16.963Z,98885.96
2019-01-08T12:58:44.002Z,98898.41
2019-01-08T13:01:10.758Z,98898.41
2019-01-08T13:03:37.540Z,98902.23
2019-01-08T13:06:05.819Z,98897.09
2019-01-08T13:08:32.773Z,98905.28
2019-01-08T13:10:59.489Z,98895.48
2019-01-08T13:13:28.037Z,98895.48
2019-01-08T13:15:54.915Z,98890.30
2019-01-08T13:18:24.517Z,98890.30
2019-01-08T13:20:51.378Z,98872.22
2019-01-08T13:23:18.263Z,98895.22
2019-01-08T13:25:45.184Z,98895.22
2019-01-08T13:28:11.968Z,98899.16
2019-01-08T13:30:38.700Z,98893.41
2019-01-08T13:33:05.446Z,98895.48
2019-01-08T13:35:32.273Z,98894.98
2019-01-08T13:37:59.459Z,98881.26
2019-01-08T13:40:26.235Z,98881.26
2019-01-08T13:42:52.951Z,98876.41
2019-01-08T13:45:19.758Z,98888.91
2019-01-08T13:47:46.481Z,98879.13
2019-01-08T13:50:14.892Z,98884.92
2019-01-08T13:52:41.807Z,98885.48
2019-01-08T13:55:08.711Z,98878.80
2019-01-08T13:57:35.490Z,98895.03
2019-01-08T14:00:03.671Z,98871.44
2019-01-08T14:02:31.987Z,98871.44
2019-01-08T14:04:59.582Z,98856.82
2019-01-08T14:07:28.324Z,98856.82
2019-01-08T14:09:57.033Z,98870.48
2019-01-08T14:12:23.759Z,98870.48
2019-01-08T14:14:50.589Z,98867.17
2019-01-08T14:17:17.433Z,98860.71
2019-01-08T14:19:44.495Z,98860.71
2019-01-08T14:22:11.277Z,98863.43
2019-01-08T14:24:38.140Z,98863.43
2019-01-08T14:27:11.701Z,98848.34
2019-01-08T14:29:34.498Z,98854.97
2019-01-08T14:32:01.604Z,98853.95
2019-01-08T14:34:28.756Z,98863.43
2019-01-08T14:36:55.479Z,98866.17
2019-01-08T14:39:22.337Z,98879.04
2019-01-08T14:41:49.041Z,98879.04
2019-01-08T14:44:15.845Z,98868.59
2019-01-08T14:46:42.855Z,98878.94
2019-01-08T14:49:12.025Z,98878.94
2019-01-08T14:51:38.768Z,98883.98
2019-01-08T14:54:05.655Z,98884.22
2019-01-08T14:56:35.401Z,98884.22
2019-01-08T14:59:02.124Z,98874.34
2019-01-08T15:01:29.377Z,98887.32
2019-01-08T15:03:56.384Z,98892.65
2019-01-08T15:06:23.633Z,98893.45
2019-01-08T15:08:50.662Z,98889.27
2019-01-08T15:11:17.571Z,98902.14
2019-01-08T15:13:44.461Z,98897.23
2019-01-08T15:16:11.322Z,98875.74
2019-01-08T15:18:38.552Z,98885.88
2019-01-08T15:21:08.573Z,98893.95
2019-01-08T15:23:35.818Z,98886.03
2019-01-08T15:26:03.230Z,98900.30
2019-01-08T15:28:30.314Z,98896.31
2019-01-08T15:31:00.650Z,98907.55
2019-01-08T15:33:27.406Z,98891.95
2019-01-08T15:35:54.212Z,98904.31
2019-01-08T15:38:21.095Z,98896.23
2019-01-08T15:40:48.139Z,98888.48
2019-01-08T15:43:14.964Z,98888.48
2019-01-08T15:45:41.862Z,98890.92
2019-01-08T15:48:08.985Z,98890.92
2019-01-08T15:50:35.757Z,98875.45
2019-01-08T15:53:02.758Z,98883.05
2019-01-08T15:55:29.774Z,98887.53
2019-01-08T15:57:56.768Z,98887.53
2019-01-08T16:00:24.935Z,98894.52
2019-01-08T16:02:51.698Z,98898.72
2019-01-08T16:05:18.721Z,98903.06
2019-01-08T16:07:45.768Z,98903.06
2019-01-08T16:10:14.258Z,98911.89
2019-01-08T16:12:41.565Z,98911.89
2019-01-08T16:15:08.438Z,98931.47
2019-01-08T16:17:35.352Z,98928.91
2019-01-08T16:20:03.779Z,98938.89
2019-01-08T16:22:30.760Z,98938.89
2019-01-08T16:24:57.753Z,98930.16
2019-01-08T16:27:24.805Z,98936.30
2019-01-08T16:29:54.242Z,98928.98
2019-01-08T16:32:22.929Z,98935.86
2019-01-08T16:34:49.857Z,98943.73
2019-01-08T16:37:16.940Z,98927.81
2019-01-08T16:39:43.830Z,98927.81
2019-01-08T16:42:11.189Z,98934.95
2019-01-08T16:44:38.179Z,98913.47
2019-01-08T16:47:05.391Z,98918.27
2019-01-08T16:49:33.805Z,98931.18
2019-01-08T16:52:01.039Z,98969.95
2019-01-08T16:54:27.906Z,98928.27
2019-01-08T16:56:54.868Z,98917.53
2019-01-08T16:59:21.595Z,98924.14
2019-01-08T17:01:48.393Z,98932.94
2019-01-08T17:04:18.013Z,98925.89
2019-01-08T17:06:44.960Z,98942.42
2019-01-08T17:09:11.828Z,98944.73
2019-01-08T17:11:41.601Z,98939.31
2019-01-08T17:14:08.321Z,98939.31
2019-01-08T17:16:35.070Z,98938.81
2019-01-08T17:19:01.861Z,98949.81
2019-01-08T17:21:28.657Z,98933.58
2019-01-08T17:23:55.512Z,98935.95
2019-01-08T17:26:22.422Z,98935.95
2019-01-08T17:28:49.308Z,98927.40
2019-01-08T17:31:16.105Z,98925.94
2019-01-08T17:33:42.889Z,98925.94
2019-01-08T17:36:09.908Z,98904.80
2019-01-08T17:38:36.785Z,98914.03
2019-01-08T17:41:03.776Z,98899.69
2019-01-08T17:43:33.735Z,98901.19
2019-01-08T17:45:59.684Z,98908.28
2019-01-08T17:48:26.638Z,98908.28
2019-01-08T17:50:53.433Z,98908.89
2019-01-08T17:53:20.658Z,98909.23
2019-01-08T17:55:47.760Z,98911.73
2019-01-08T17:58:31.973Z,98915.72
2019-01-08T18:01:03.873Z,98912.91
2019-01-08T18:03:29.738Z,98909.83
2019-01-08T18:05:56.539Z,98928.19
2019-01-08T18:08:23.598Z,98928.19
2019-01-08T18:10:50.482Z,98931.81
2019-01-08T18:13:17.882Z,98932.56
2019-01-08T18:15:44.621Z,98932.56
2019-01-08T18:18:11.870Z,98938.45
2019-01-08T18:20:38.633Z,98937.38
2019-01-08T18:23:05.780Z,98948.22
2019-01-08T18:25:32.549Z,98944.80
2019-01-08T18:27:59.347Z,98941.30
2019-01-08T18:30:26.322Z,98941.30
2019-01-08T18:32:53.081Z,98937.25
2019-01-08T18:35:19.891Z,98932.02
2019-01-08T18:37:47.034Z,98938.23
2019-01-08T18:40:14.225Z,98934.33
2019-01-08T18:42:41.241Z,98927.70
2019-01-08T18:45:08.126Z,98917.52
2019-01-08T18:47:35.539Z,98917.91
2019-01-08T18:50:02.473Z,98924.27
2019-01-08T18:52:30.162Z,98924.27
2019-01-08T18:54:56.963Z,98918.02
2019-01-08T18:57:23.754Z,98934.30
2019-01-08T18:59:50.649Z,98935.61
2019-01-08T19:02:17.481Z,98933.77
2019-01-08T19:04:44.334Z,98946.19
2019-01-08T19:07:11.131Z,98952.55
2019-01-08T19:09:40.889Z,98948.30
2019-01-08T19:12:13.434Z,98948.30
2019-01-08T19:14:41.159Z,98939.69
2019-01-08T19:17:08.286Z,98950.53
2019-01-08T19:19:35.212Z,98960.83
2019-01-08T19:22:02.310Z,98960.15
2019-01-08T19:24:29.081Z,98957.23
2019-01-08T19:26:55.875Z,98944.94
2019-01-08T19:29:24.062Z,98944.94
2019-01-08T19:31:51.160Z,98954.46
2019-01-08T19:34:18.024Z,98954.46
2019-01-08T19:36:44.950Z,98936.51
2019-01-08T19:39:14.740Z,98936.51
2019-01-08T19:41:41.639Z,98921.35
2019-01-08T19:44:09.523Z,98934.63
2019-01-08T19:46:36.345Z,98935.80
2019-01-08T19:49:03.105Z,98933.98
2019-01-08T19:51:29.972Z,98931.36
2019-01-08T19:53:56.813Z,98939.55
2019-01-08T19:56:25.410Z,98935.62
2019-01-08T19:58:52.696Z,98927.94
2019-01-08T20:01:19.855Z,98933.27
2019-01-08T20:03:46.640Z,98933.27
2019-01-08T20:06:13.392Z,98920.02
2019-01-08T20:08:48.476Z,98918.29
2019-01-08T20:11:09.149Z,98923.70
2019-01-08T20:13:36.017Z,98923.70
2019-01-08T20:16:02.892Z,98912.66
2019-01-08T20:18:29.999Z,98935.64
2019-01-08T20:20:56.988Z,98935.64
2019-01-08T20:23:24.523Z,98950.50
2019-01-08T20:25:51.396Z,98956.48
2019-01-08T20:28:18.688Z,98956.48
2019-01-08T20:30:45.812Z,98961.38
2019-01-08T20:33:12.760Z,98959.77
2019-01-08T20:35:39.487Z,98956.02
2019-01-08T20:38:06.346Z,98950.05
2019-01-08T20:40:33.207Z,98948.30
2019-01-08T20:43:00.215Z,98933.80
2019-01-08T20:45:27.062Z,98923.50
2019-01-08T20:47:57.129Z,98920.26
2019-01-08T20:50:23.920Z,98920.26
2019-01-08T20:52:50.858Z,98910.28
2019-01-08T20:55:17.886Z,98910.11
2019-01-08T20:57:44.657Z,98919.90
2019-01-08T21:00:11.417Z,98922.02
2019-01-08T21:02:38.346Z,98918.34
2019-01-08T21:05:05.124Z,98924.06
2019-01-08T21:07:32.297Z,98911.30
2019-01-08T21:09:59.522Z,98903.91
2019-01-08T21:12:26.551Z,98924.30
2019-01-08T21:14:53.915Z,98909.90
2019-01-08T21:17:20.676Z,98909.90
2019-01-08T21:19:48.369Z,98886.72
2019-01-08T21:22:15.320Z,98894.24
2019-01-08T21:24:42.358Z,98894.24
2019-01-08T21:27:09.571Z,98902.81
2019-01-08T21:29:40.088Z,98895.02
2019-01-08T21:32:06.902Z,98895.02
2019-01-08T21:34:33.635Z,98884.84
2019-01-08T21:37:00.381Z,98884.84
2019-01-08T21:39:27.268Z,98884.20
2019-01-08T21:41:54.152Z,98884.20
2019-01-08T21:44:21.136Z,98892.45
2019-01-08T21:46:48.556Z,98892.45
2019-01-08T21:49:15.347Z,98898.41
2019-01-08T21:51:42.203Z,98898.41
2019-01-08T21:54:09.553Z,98896.23
2019-01-08T21:56:36.377Z,98915.86
2019-01-08T21:59:05.589Z,98939.00
2019-01-08T22:01:32.624Z,98949.30
2019-01-08T22:03:59.545Z,98940.98
2019-01-08T22:06:26.297Z,98925.83
2019-01-08T22:08:53.297Z,98925.83
2019-01-08T22:11:20.252Z,98924.41
2019-01-08T22:13:47.659Z,98908.11
2019-01-08T22:16:15.275Z,98908.11
2019-01-08T22:18:42.480Z,98893.88
2019-01-08T22:21:10.038Z,98893.88
2019-01-08T22:23:37.017Z,98891.72
2019-01-08T22:26:03.848Z,98891.72
2019-01-08T22:28:30.715Z,98878.63
2019-01-08T22:30:57.708Z,98875.88
2019-01-08T22:33:24.627Z,98898.63
2019-01-08T22:35:52.879Z,98872.34
2019-01-08T22:38:19.754Z,98864.30
2019-01-08T22:40:47.433Z,98860.58
2019-01-08T22:43:14.505Z,98864.25
2019-01-08T22:45:41.428Z,98867.34
2019-01-08T22:48:08.422Z,98867.34
2019-01-08T22:50:35.264Z,98893.28
2019-01-08T22:53:02.000Z,98893.28
2019-01-08T22:55:29.433Z,98887.87
2019-01-08T22:57:56.495Z,98866.85
2019-01-08T23:00:41.863Z,98887.33
2019-01-08T23:03:08.787Z,98887.33
2019-01-08T23:05:36.178Z,98845.59
2019-01-08T23:08:06.117Z,98845.59
2019-01-08T23:10:33.096Z,98853.64
2019-01-08T23:13:00.644Z,98823.77
2019-01-08T23:15:27.621Z,98838.52
2019-01-08T23:17:54.699Z,98838.52
2019-01-08T23:20:21.768Z,98841.87
2019-01-08T23:22:49.355Z,98806.03
2019-01-08T23:25:16.148Z,98825.47
2019-01-08T23:27:42.939Z,98825.47
2019-01-08T23:30:10.004Z,98836.57
2019-01-08T23:32:36.939Z,98836.57
2019-01-08T23:35:04.145Z,98827.62
2019-01-08T23:37:38.604Z,98834.13
2019-01-08T23:40:06.111Z,98846.84
2019-01-08T23:42:33.164Z,98819.48
2019-01-08T23:45:00.301Z,98819.48
2019-01-08T23:47:30.114Z,98841.52
2019-01-08T23:49:57.207Z,98813.58
2019-01-08T23:52:29.779Z,98813.58
2019-01-08T23:54:56.942Z,98816.36
2019-01-08T23:57:23.997Z,98816.36
2019-01-08T23:59:51.883Z,98820.58
